sensor_id;sensor_type;location;lat;lon;timestamp;P1;durP1;ratioP1;P2;durP2;ratioP2
86358;SDS011;77014;48.070;20.776;2024-03-23T00:51:56;66.30;;;64.30;;
86358;SDS011;77014;48.070;20.776;2024-03-23T00:52:27;64.77;;;62.83;;
86358;SDS011;77014;48.070;20.776;2024-03-23T00:52:58;66.20;;;64.10;;
86358;SDS011;77014;48.070;20.776;2024-03-23T00:54:04;66.40;;;64.40;;
86358;SDS011;77014;48.070;20.776;2024-03-23T00:54:35;65.23;;;63.10;;
86358;SDS011;77014;48.070;20.776;2024-03-23T00:55:06;66.10;;;63.83;;
86358;SDS011;77014;48.070;20.776;2024-03-23T00:55:38;66.70;;;64.60;;
86358;SDS011;77014;48.070;20.776;2024-03-23T00:56:09;66.67;;;64.43;;
86358;SDS011;77014;48.070;20.776;2024-03-23T00:56:40;65.80;;;63.70;;
86358;SDS011;77014;48.070;20.776;2024-03-23T00:57:11;67.70;;;65.63;;
86358;SDS011;77014;48.070;20.776;2024-03-23T00:57:42;69.63;;;67.47;;
86358;SDS011;77014;48.070;20.776;2024-03-23T00:58:14;72.03;;;69.57;;
86358;SDS011;77014;48.070;20.776;2024-03-23T00:58:44;74.07;;;71.70;;
86358;SDS011;77014;48.070;20.776;2024-03-23T00:59:16;74.73;;;72.60;;
86358;SDS011;77014;48.070;20.776;2024-03-23T00:59:47;74.07;;;71.60;;
86358;SDS011;77014;48.070;20.776;2024-03-23T01:00:18;74.97;;;72.47;;
86358;SDS011;77014;48.070;20.776;2024-03-23T01:00:49;71.63;;;69.57;;
86358;SDS011;77014;48.070;20.776;2024-03-23T01:01:20;73.50;;;71.37;;
86358;SDS011;77014;48.070;20.776;2024-03-23T01:01:51;74.13;;;71.60;;
86358;SDS011;77014;48.070;20.776;2024-03-23T01:02:22;75.20;;;72.77;;
86358;SDS011;77014;48.070;20.776;2024-03-23T01:02:53;72.17;;;71.10;;
86358;SDS011;77014;48.070;20.776;2024-03-23T01:03:24;73.07;;;71.40;;
86358;SDS011;77014;48.070;20.776;2024-03-23T01:03:55;75.47;;;73.27;;
86358;SDS011;77014;48.070;20.776;2024-03-23T01:04:26;75.60;;;73.20;;
86358;SDS011;77014;48.070;20.776;2024-03-23T01:04:57;77.03;;;74.53;;
86358;SDS011;77014;48.070;20.776;2024-03-23T01:05:28;77.03;;;74.87;;
86358;SDS011;77014;48.070;20.776;2024-03-23T01:06:00;76.37;;;74.07;;
86358;SDS011;77014;48.070;20.776;2024-03-23T01:06:33;74.73;;;72.40;;
86358;SDS011;77014;48.070;20.776;2024-03-23T01:07:04;73.67;;;71.23;;
86358;SDS011;77014;48.070;20.776;2024-03-23T01:07:35;74.60;;;72.13;;
86358;SDS011;77014;48.070;20.776;2024-03-23T01:08:06;72.63;;;70.20;;
86358;SDS011;77014;48.070;20.776;2024-03-23T01:08:37;71.93;;;70.43;;
86358;SDS011;77014;48.070;20.776;2024-03-23T01:09:08;72.70;;;70.63;;
86358;SDS011;77014;48.070;20.776;2024-03-23T01:09:41;72.17;;;70.07;;
86358;SDS011;77014;48.070;20.776;2024-03-23T01:10:12;71.93;;;69.90;;
86358;SDS011;77014;48.070;20.776;2024-03-23T01:10:43;74.30;;;71.87;;
86358;SDS011;77014;48.070;20.776;2024-03-23T01:11:25;75.33;;;72.70;;
86358;SDS011;77014;48.070;20.776;2024-03-23T01:11:57;75.17;;;73.33;;
86358;SDS011;77014;48.070;20.776;2024-03-23T01:12:28;76.30;;;74.07;;
86358;SDS011;77014;48.070;20.776;2024-03-23T01:12:59;75.23;;;73.07;;
86358;SDS011;77014;48.070;20.776;2024-03-23T01:13:30;75.90;;;73.83;;
86358;SDS011;77014;48.070;20.776;2024-03-23T01:14:02;74.67;;;72.53;;
86358;SDS011;77014;48.070;20.776;2024-03-23T01:14:34;76.73;;;74.47;;
86358;SDS011;77014;48.070;20.776;2024-03-23T01:15:06;78.87;;;76.53;;
86358;SDS011;77014;48.070;20.776;2024-03-23T01:15:37;80.30;;;77.63;;
86358;SDS011;77014;48.070;20.776;2024-03-23T01:16:08;79.00;;;76.93;;
86358;SDS011;77014;48.070;20.776;2024-03-23T01:16:40;79.67;;;77.10;;
86358;SDS011;77014;48.070;20.776;2024-03-23T01:17:11;80.40;;;77.70;;
86358;SDS011;77014;48.070;20.776;2024-03-23T01:17:41;79.80;;;77.07;;
86358;SDS011;77014;48.070;20.776;2024-03-23T01:18:12;79.97;;;77.23;;
86358;SDS011;77014;48.070;20.776;2024-03-23T01:18:43;79.93;;;77.10;;
86358;SDS011;77014;48.070;20.776;2024-03-23T01:19:15;80.27;;;77.87;;
86358;SDS011;77014;48.070;20.776;2024-03-23T01:19:46;82.40;;;80.00;;
86358;SDS011;77014;48.070;20.776;2024-03-23T01:20:16;82.90;;;80.40;;
86358;SDS011;77014;48.070;20.776;2024-03-23T01:20:47;81.33;;;78.73;;
86358;SDS011;77014;48.070;20.776;2024-03-23T01:21:19;80.33;;;77.77;;
86358;SDS011;77014;48.070;20.776;2024-03-23T01:21:50;78.73;;;76.80;;
86358;SDS011;77014;48.070;20.776;2024-03-23T01:22:21;78.07;;;76.17;;
86358;SDS011;77014;48.070;20.776;2024-03-23T01:22:52;78.40;;;76.40;;
86358;SDS011;77014;48.070;20.776;2024-03-23T01:23:23;80.07;;;78.00;;
86358;SDS011;77014;48.070;20.776;2024-03-23T01:23:54;80.30;;;77.93;;
86358;SDS011;77014;48.070;20.776;2024-03-23T01:24:25;78.77;;;76.67;;
86358;SDS011;77014;48.070;20.776;2024-03-23T01:24:56;77.07;;;75.57;;
86358;SDS011;77014;48.070;20.776;2024-03-23T01:25:27;78.27;;;76.37;;
86358;SDS011;77014;48.070;20.776;2024-03-23T01:25:58;78.50;;;76.50;;
86358;SDS011;77014;48.070;20.776;2024-03-23T01:26:30;79.00;;;76.70;;
86358;SDS011;77014;48.070;20.776;2024-03-23T01:27:01;81.20;;;78.73;;
86358;SDS011;77014;48.070;20.776;2024-03-23T01:27:32;84.07;;;81.50;;
86358;SDS011;77014;48.070;20.776;2024-03-23T01:28:03;85.73;;;83.10;;
86358;SDS011;77014;48.070;20.776;2024-03-23T01:28:35;88.20;;;85.40;;
86358;SDS011;77014;48.070;20.776;2024-03-23T01:29:06;86.83;;;84.03;;
86358;SDS011;77014;48.070;20.776;2024-03-23T01:29:37;88.10;;;85.43;;
86358;SDS011;77014;48.070;20.776;2024-03-23T01:30:07;86.43;;;83.40;;
86358;SDS011;77014;48.070;20.776;2024-03-23T01:30:39;87.87;;;84.67;;
86358;SDS011;77014;48.070;20.776;2024-03-23T01:31:11;89.13;;;86.27;;
86358;SDS011;77014;48.070;20.776;2024-03-23T01:31:42;87.00;;;84.40;;
86358;SDS011;77014;48.070;20.776;2024-03-23T01:32:13;86.57;;;83.70;;
86358;SDS011;77014;48.070;20.776;2024-03-23T01:32:44;86.53;;;83.80;;
86358;SDS011;77014;48.070;20.776;2024-03-23T01:33:15;86.27;;;83.67;;
86358;SDS011;77014;48.070;20.776;2024-03-23T01:33:46;85.43;;;82.80;;
86358;SDS011;77014;48.070;20.776;2024-03-23T01:34:17;87.60;;;84.63;;
86358;SDS011;77014;48.070;20.776;2024-03-23T01:34:49;87.83;;;84.90;;
86358;SDS011;77014;48.070;20.776;2024-03-23T01:35:20;86.87;;;84.17;;
86358;SDS011;77014;48.070;20.776;2024-03-23T01:35:51;87.00;;;84.30;;
86358;SDS011;77014;48.070;20.776;2024-03-23T01:36:23;87.80;;;85.30;;
86358;SDS011;77014;48.070;20.776;2024-03-23T01:36:54;85.37;;;82.43;;
86358;SDS011;77014;48.070;20.776;2024-03-23T01:37:25;85.57;;;82.37;;
86358;SDS011;77014;48.070;20.776;2024-03-23T01:37:56;84.53;;;81.70;;
86358;SDS011;77014;48.070;20.776;2024-03-23T01:38:27;87.10;;;84.30;;
86358;SDS011;77014;48.070;20.776;2024-03-23T01:38:58;86.73;;;83.77;;
86358;SDS011;77014;48.070;20.776;2024-03-23T01:39:29;87.93;;;85.00;;
86358;SDS011;77014;48.070;20.776;2024-03-23T01:40:00;83.07;;;80.67;;
86358;SDS011;77014;48.070;20.776;2024-03-23T01:40:31;84.00;;;81.47;;
86358;SDS011;77014;48.070;20.776;2024-03-23T01:41:02;84.93;;;82.23;;
86358;SDS011;77014;48.070;20.776;2024-03-23T01:41:33;82.00;;;79.43;;
86358;SDS011;77014;48.070;20.776;2024-03-23T01:42:04;82.57;;;80.20;;
86358;SDS011;77014;48.070;20.776;2024-03-23T01:42:36;83.07;;;80.87;;
86358;SDS011;77014;48.070;20.776;2024-03-23T01:43:07;83.13;;;80.83;;
86358;SDS011;77014;48.070;20.776;2024-03-23T01:43:38;79.83;;;78.57;;
86358;SDS011;77014;48.070;20.776;2024-03-23T01:44:10;81.10;;;79.20;;
86358;SDS011;77014;48.070;20.776;2024-03-23T01:44:41;80.97;;;79.17;;
86358;SDS011;77014;48.070;20.776;2024-03-23T01:45:12;84.87;;;82.10;;
86358;SDS011;77014;48.070;20.776;2024-03-23T01:45:43;86.00;;;82.87;;
86358;SDS011;77014;48.070;20.776;2024-03-23T01:46:14;87.33;;;84.30;;
86358;SDS011;77014;48.070;20.776;2024-03-23T01:46:46;87.27;;;84.47;;
86358;SDS011;77014;48.070;20.776;2024-03-23T01:47:17;88.47;;;85.17;;
86358;SDS011;77014;48.070;20.776;2024-03-23T01:47:48;85.83;;;82.80;;
86358;SDS011;77014;48.070;20.776;2024-03-23T01:48:23;87.23;;;84.33;;
86358;SDS011;77014;48.070;20.776;2024-03-23T01:48:55;87.83;;;85.07;;
86358;SDS011;77014;48.070;20.776;2024-03-23T01:49:26;87.60;;;84.83;;
86358;SDS011;77014;48.070;20.776;2024-03-23T01:49:57;87.63;;;85.03;;
86358;SDS011;77014;48.070;20.776;2024-03-23T01:50:27;88.33;;;85.00;;
86358;SDS011;77014;48.070;20.776;2024-03-23T01:51:03;87.40;;;84.07;;
86358;SDS011;77014;48.070;20.776;2024-03-23T01:51:36;86.30;;;83.53;;
86358;SDS011;77014;48.070;20.776;2024-03-23T01:52:08;87.67;;;84.87;;
86358;SDS011;77014;48.070;20.776;2024-03-23T01:52:39;85.53;;;83.00;;
86358;SDS011;77014;48.070;20.776;2024-03-23T01:53:10;83.53;;;81.13;;
86358;SDS011;77014;48.070;20.776;2024-03-23T01:53:41;83.30;;;80.87;;
86358;SDS011;77014;48.070;20.776;2024-03-23T01:54:12;81.17;;;78.63;;
86358;SDS011;77014;48.070;20.776;2024-03-23T01:54:44;79.57;;;77.27;;
86358;SDS011;77014;48.070;20.776;2024-03-23T01:55:15;78.00;;;75.30;;
86358;SDS011;77014;48.070;20.776;2024-03-23T01:55:46;77.83;;;75.03;;
86358;SDS011;77014;48.070;20.776;2024-03-23T01:56:17;75.87;;;74.40;;
86358;SDS011;77014;48.070;20.776;2024-03-23T01:56:48;76.00;;;73.93;;
86358;SDS011;77014;48.070;20.776;2024-03-23T01:57:19;78.37;;;75.93;;
86358;SDS011;77014;48.070;20.776;2024-03-23T01:57:51;76.73;;;73.93;;
86358;SDS011;77014;48.070;20.776;2024-03-23T01:58:22;76.63;;;74.03;;
86358;SDS011;77014;48.070;20.776;2024-03-23T01:58:53;75.67;;;73.10;;
86358;SDS011;77014;48.070;20.776;2024-03-23T01:59:24;74.37;;;72.17;;
86358;SDS011;77014;48.070;20.776;2024-03-23T01:59:55;71.87;;;69.70;;
86358;SDS011;77014;48.070;20.776;2024-03-23T02:00:27;74.00;;;71.33;;
86358;SDS011;77014;48.070;20.776;2024-03-23T02:00:58;74.70;;;72.00;;
86358;SDS011;77014;48.070;20.776;2024-03-23T02:01:29;74.13;;;71.63;;
86358;SDS011;77014;48.070;20.776;2024-03-23T02:02:00;71.47;;;69.63;;
86358;SDS011;77014;48.070;20.776;2024-03-23T02:02:31;71.03;;;69.37;;
86358;SDS011;77014;48.070;20.776;2024-03-23T02:03:02;71.33;;;69.33;;
86358;SDS011;77014;48.070;20.776;2024-03-23T02:03:53;69.90;;;67.23;;
86358;SDS011;77014;48.070;20.776;2024-03-23T02:04:24;70.67;;;68.23;;
86358;SDS011;77014;48.070;20.776;2024-03-23T02:04:55;70.87;;;68.50;;
86358;SDS011;77014;48.070;20.776;2024-03-23T02:05:26;68.90;;;66.47;;
86358;SDS011;77014;48.070;20.776;2024-03-23T02:05:57;68.17;;;65.97;;
86358;SDS011;77014;48.070;20.776;2024-03-23T02:06:28;69.33;;;67.83;;
86358;SDS011;77014;48.070;20.776;2024-03-23T02:07:00;69.80;;;68.00;;
86358;SDS011;77014;48.070;20.776;2024-03-23T02:07:31;70.07;;;68.07;;
86358;SDS011;77014;48.070;20.776;2024-03-23T02:08:02;71.63;;;69.63;;
86358;SDS011;77014;48.070;20.776;2024-03-23T02:08:33;70.87;;;69.40;;
86358;SDS011;77014;48.070;20.776;2024-03-23T02:09:05;71.63;;;70.97;;
86358;SDS011;77014;48.070;20.776;2024-03-23T02:09:36;72.83;;;71.77;;
86358;SDS011;77014;48.070;20.776;2024-03-23T02:10:07;74.70;;;72.83;;
86358;SDS011;77014;48.070;20.776;2024-03-23T02:10:40;75.87;;;74.23;;
86358;SDS011;77014;48.070;20.776;2024-03-23T02:11:11;75.03;;;73.07;;
86358;SDS011;77014;48.070;20.776;2024-03-23T02:11:42;78.57;;;76.13;;
86358;SDS011;77014;48.070;20.776;2024-03-23T02:12:13;82.07;;;80.07;;
86358;SDS011;77014;48.070;20.776;2024-03-23T02:14:11;85.23;;;82.73;;
86358;SDS011;77014;48.070;20.776;2024-03-23T02:14:42;84.33;;;81.77;;
86358;SDS011;77014;48.070;20.776;2024-03-23T02:15:13;83.97;;;81.43;;
86358;SDS011;77014;48.070;20.776;2024-03-23T02:15:44;81.13;;;78.60;;
86358;SDS011;77014;48.070;20.776;2024-03-23T02:16:15;80.47;;;78.30;;
86358;SDS011;77014;48.070;20.776;2024-03-23T02:16:46;79.97;;;77.73;;
86358;SDS011;77014;48.070;20.776;2024-03-23T02:17:17;82.20;;;79.57;;
86358;SDS011;77014;48.070;20.776;2024-03-23T02:17:48;83.07;;;81.73;;
86358;SDS011;77014;48.070;20.776;2024-03-23T02:18:19;84.23;;;82.57;;
86358;SDS011;77014;48.070;20.776;2024-03-23T02:18:50;85.37;;;83.13;;
86358;SDS011;77014;48.070;20.776;2024-03-23T02:19:21;86.20;;;83.73;;
86358;SDS011;77014;48.070;20.776;2024-03-23T02:19:52;86.57;;;83.93;;
86358;SDS011;77014;48.070;20.776;2024-03-23T02:20:23;84.33;;;81.67;;
86358;SDS011;77014;48.070;20.776;2024-03-23T02:20:54;85.10;;;82.47;;
86358;SDS011;77014;48.070;20.776;2024-03-23T02:21:25;83.23;;;80.73;;
86358;SDS011;77014;48.070;20.776;2024-03-23T02:21:58;82.97;;;80.20;;
86358;SDS011;77014;48.070;20.776;2024-03-23T02:22:38;80.70;;;78.40;;
86358;SDS011;77014;48.070;20.776;2024-03-23T02:23:15;80.57;;;78.27;;
86358;SDS011;77014;48.070;20.776;2024-03-23T02:23:47;81.87;;;79.33;;
86358;SDS011;77014;48.070;20.776;2024-03-23T02:24:18;82.03;;;79.63;;
86358;SDS011;77014;48.070;20.776;2024-03-23T02:24:49;79.87;;;78.67;;
86358;SDS011;77014;48.070;20.776;2024-03-23T02:25:20;80.23;;;77.87;;
86358;SDS011;77014;48.070;20.776;2024-03-23T02:25:51;80.53;;;77.73;;
86358;SDS011;77014;48.070;20.776;2024-03-23T02:26:23;80.43;;;77.60;;
86358;SDS011;77014;48.070;20.776;2024-03-23T02:26:54;79.70;;;77.00;;
86358;SDS011;77014;48.070;20.776;2024-03-23T02:27:25;78.40;;;76.37;;
86358;SDS011;77014;48.070;20.776;2024-03-23T02:27:56;78.30;;;76.23;;
86358;SDS011;77014;48.070;20.776;2024-03-23T02:28:28;78.03;;;76.00;;
86358;SDS011;77014;48.070;20.776;2024-03-23T02:29:00;80.30;;;78.07;;
86358;SDS011;77014;48.070;20.776;2024-03-23T02:29:30;82.17;;;79.90;;
86358;SDS011;77014;48.070;20.776;2024-03-23T02:30:01;80.23;;;79.33;;
86358;SDS011;77014;48.070;20.776;2024-03-23T02:30:33;79.50;;;78.43;;
86358;SDS011;77014;48.070;20.776;2024-03-23T02:31:04;79.20;;;77.23;;
86358;SDS011;77014;48.070;20.776;2024-03-23T02:31:35;82.33;;;79.83;;
86358;SDS011;77014;48.070;20.776;2024-03-23T02:32:06;82.07;;;79.83;;
86358;SDS011;77014;48.070;20.776;2024-03-23T02:32:39;81.13;;;78.93;;
86358;SDS011;77014;48.070;20.776;2024-03-23T02:33:10;79.47;;;77.67;;
86358;SDS011;77014;48.070;20.776;2024-03-23T02:33:41;81.50;;;79.27;;
86358;SDS011;77014;48.070;20.776;2024-03-23T02:34:12;83.23;;;80.63;;
86358;SDS011;77014;48.070;20.776;2024-03-23T02:34:43;83.43;;;80.83;;
86358;SDS011;77014;48.070;20.776;2024-03-23T02:35:14;83.20;;;80.77;;
86358;SDS011;77014;48.070;20.776;2024-03-23T02:35:45;83.43;;;80.90;;
86358;SDS011;77014;48.070;20.776;2024-03-23T02:36:16;81.43;;;79.00;;
86358;SDS011;77014;48.070;20.776;2024-03-23T02:36:47;77.53;;;75.90;;
86358;SDS011;77014;48.070;20.776;2024-03-23T02:37:18;77.43;;;76.20;;
86358;SDS011;77014;48.070;20.776;2024-03-23T02:37:49;78.37;;;76.07;;
86358;SDS011;77014;48.070;20.776;2024-03-23T02:38:20;76.87;;;74.40;;
86358;SDS011;77014;48.070;20.776;2024-03-23T02:38:51;73.43;;;71.67;;
86358;SDS011;77014;48.070;20.776;2024-03-23T02:39:22;70.53;;;69.40;;
86358;SDS011;77014;48.070;20.776;2024-03-23T02:39:53;73.33;;;71.37;;
86358;SDS011;77014;48.070;20.776;2024-03-23T02:40:24;73.97;;;71.33;;
86358;SDS011;77014;48.070;20.776;2024-03-23T02:41:00;72.87;;;70.30;;
86358;SDS011;77014;48.070;20.776;2024-03-23T02:41:33;75.67;;;72.90;;
86358;SDS011;77014;48.070;20.776;2024-03-23T02:42:04;76.20;;;73.70;;
86358;SDS011;77014;48.070;20.776;2024-03-23T02:42:35;73.00;;;70.83;;
86358;SDS011;77014;48.070;20.776;2024-03-23T02:43:06;71.40;;;69.53;;
86358;SDS011;77014;48.070;20.776;2024-03-23T02:43:37;73.27;;;71.07;;
86358;SDS011;77014;48.070;20.776;2024-03-23T02:44:08;73.33;;;70.97;;
86358;SDS011;77014;48.070;20.776;2024-03-23T02:44:42;73.97;;;71.13;;
86358;SDS011;77014;48.070;20.776;2024-03-23T02:45:12;72.73;;;70.37;;
86358;SDS011;77014;48.070;20.776;2024-03-23T02:45:43;73.20;;;71.07;;
86358;SDS011;77014;48.070;20.776;2024-03-23T02:46:14;73.73;;;71.67;;
86358;SDS011;77014;48.070;20.776;2024-03-23T02:46:45;73.33;;;70.90;;
86358;SDS011;77014;48.070;20.776;2024-03-23T02:47:16;71.77;;;69.97;;
86358;SDS011;77014;48.070;20.776;2024-03-23T02:47:47;69.70;;;68.67;;
86358;SDS011;77014;48.070;20.776;2024-03-23T02:48:22;73.43;;;71.37;;
86358;SDS011;77014;48.070;20.776;2024-03-23T02:48:54;73.23;;;70.93;;
86358;SDS011;77014;48.070;20.776;2024-03-23T02:49:25;73.20;;;70.87;;
86358;SDS011;77014;48.070;20.776;2024-03-23T02:49:56;73.67;;;71.50;;
86358;SDS011;77014;48.070;20.776;2024-03-23T02:50:27;71.27;;;69.37;;
86358;SDS011;77014;48.070;20.776;2024-03-23T02:50:58;69.57;;;67.87;;
86358;SDS011;77014;48.070;20.776;2024-03-23T02:51:29;72.07;;;69.90;;
86358;SDS011;77014;48.070;20.776;2024-03-23T02:52:00;71.53;;;69.57;;
86358;SDS011;77014;48.070;20.776;2024-03-23T02:52:30;71.30;;;69.23;;
86358;SDS011;77014;48.070;20.776;2024-03-23T02:53:01;70.07;;;67.90;;
86358;SDS011;77014;48.070;20.776;2024-03-23T02:53:32;70.27;;;68.00;;
86358;SDS011;77014;48.070;20.776;2024-03-23T02:54:03;69.83;;;67.93;;
86358;SDS011;77014;48.070;20.776;2024-03-23T02:54:34;69.30;;;67.50;;
86358;SDS011;77014;48.070;20.776;2024-03-23T02:55:05;67.57;;;66.13;;
86358;SDS011;77014;48.070;20.776;2024-03-23T02:55:36;68.53;;;66.57;;
86358;SDS011;77014;48.070;20.776;2024-03-23T02:56:07;68.10;;;66.13;;
86358;SDS011;77014;48.070;20.776;2024-03-23T02:56:38;68.60;;;66.53;;
86358;SDS011;77014;48.070;20.776;2024-03-23T02:57:10;67.77;;;65.73;;
86358;SDS011;77014;48.070;20.776;2024-03-23T02:57:41;67.70;;;65.70;;
86358;SDS011;77014;48.070;20.776;2024-03-23T02:58:13;68.63;;;66.27;;
86358;SDS011;77014;48.070;20.776;2024-03-23T02:58:45;67.97;;;65.53;;
86358;SDS011;77014;48.070;20.776;2024-03-23T02:59:16;67.83;;;65.60;;
86358;SDS011;77014;48.070;20.776;2024-03-23T02:59:47;66.87;;;65.03;;
86358;SDS011;77014;48.070;20.776;2024-03-23T03:00:18;70.13;;;67.90;;
86358;SDS011;77014;48.070;20.776;2024-03-23T03:00:49;68.07;;;65.63;;
86358;SDS011;77014;48.070;20.776;2024-03-23T03:01:20;68.73;;;66.40;;
86358;SDS011;77014;48.070;20.776;2024-03-23T03:01:51;67.27;;;65.17;;
86358;SDS011;77014;48.070;20.776;2024-03-23T03:02:21;67.60;;;66.20;;
86358;SDS011;77014;48.070;20.776;2024-03-23T03:02:52;68.07;;;66.37;;
86358;SDS011;77014;48.070;20.776;2024-03-23T03:03:24;69.23;;;67.07;;
86358;SDS011;77014;48.070;20.776;2024-03-23T03:03:55;68.67;;;66.60;;
86358;SDS011;77014;48.070;20.776;2024-03-23T03:04:26;66.17;;;63.93;;
86358;SDS011;77014;48.070;20.776;2024-03-23T03:04:56;67.97;;;65.70;;
86358;SDS011;77014;48.070;20.776;2024-03-23T03:05:27;68.70;;;66.63;;
86358;SDS011;77014;48.070;20.776;2024-03-23T03:05:58;69.00;;;66.70;;
86358;SDS011;77014;48.070;20.776;2024-03-23T03:06:30;69.07;;;66.60;;
86358;SDS011;77014;48.070;20.776;2024-03-23T03:07:01;67.67;;;65.23;;
86358;SDS011;77014;48.070;20.776;2024-03-23T03:07:32;69.93;;;67.57;;
86358;SDS011;77014;48.070;20.776;2024-03-23T03:08:03;69.43;;;67.03;;
86358;SDS011;77014;48.070;20.776;2024-03-23T03:08:34;68.67;;;66.47;;
86358;SDS011;77014;48.070;20.776;2024-03-23T03:09:05;65.50;;;64.17;;
86358;SDS011;77014;48.070;20.776;2024-03-23T03:09:36;66.60;;;64.60;;
86358;SDS011;77014;48.070;20.776;2024-03-23T03:10:09;65.97;;;63.77;;
86358;SDS011;77014;48.070;20.776;2024-03-23T03:10:41;65.63;;;63.37;;
86358;SDS011;77014;48.070;20.776;2024-03-23T03:11:12;63.90;;;62.20;;
86358;SDS011;77014;48.070;20.776;2024-03-23T03:11:43;65.10;;;64.47;;
86358;SDS011;77014;48.070;20.776;2024-03-23T03:12:14;68.43;;;66.67;;
86358;SDS011;77014;48.070;20.776;2024-03-23T03:12:45;67.10;;;65.10;;
86358;SDS011;77014;48.070;20.776;2024-03-23T03:13:16;69.50;;;67.23;;
86358;SDS011;77014;48.070;20.776;2024-03-23T03:13:47;68.30;;;66.07;;
86358;SDS011;77014;48.070;20.776;2024-03-23T03:14:18;67.93;;;65.57;;
86358;SDS011;77014;48.070;20.776;2024-03-23T03:14:50;68.03;;;65.87;;
86358;SDS011;77014;48.070;20.776;2024-03-23T03:15:21;65.57;;;63.40;;
86358;SDS011;77014;48.070;20.776;2024-03-23T03:15:52;65.70;;;63.63;;
86358;SDS011;77014;48.070;20.776;2024-03-23T03:16:23;67.27;;;65.23;;
86358;SDS011;77014;48.070;20.776;2024-03-23T03:16:54;66.43;;;64.33;;
86358;SDS011;77014;48.070;20.776;2024-03-23T03:17:25;64.77;;;62.77;;
86358;SDS011;77014;48.070;20.776;2024-03-23T03:17:56;66.57;;;64.40;;
86358;SDS011;77014;48.070;20.776;2024-03-23T03:18:27;66.17;;;63.93;;
86358;SDS011;77014;48.070;20.776;2024-03-23T03:18:58;67.80;;;65.47;;
86358;SDS011;77014;48.070;20.776;2024-03-23T03:19:29;66.33;;;64.00;;
86358;SDS011;77014;48.070;20.776;2024-03-23T03:20:01;63.93;;;61.73;;
86358;SDS011;77014;48.070;20.776;2024-03-23T03:20:31;66.50;;;64.33;;
86358;SDS011;77014;48.070;20.776;2024-03-23T03:21:03;67.10;;;65.13;;
86358;SDS011;77014;48.070;20.776;2024-03-23T03:21:36;66.00;;;64.07;;
86358;SDS011;77014;48.070;20.776;2024-03-23T03:22:07;66.73;;;64.70;;
86358;SDS011;77014;48.070;20.776;2024-03-23T03:22:39;63.37;;;61.20;;
86358;SDS011;77014;48.070;20.776;2024-03-23T03:23:10;64.07;;;62.50;;
86358;SDS011;77014;48.070;20.776;2024-03-23T03:23:41;66.37;;;64.53;;
86358;SDS011;77014;48.070;20.776;2024-03-23T03:24:13;66.73;;;64.37;;
86358;SDS011;77014;48.070;20.776;2024-03-23T03:24:44;65.90;;;63.83;;
86358;SDS011;77014;48.070;20.776;2024-03-23T03:25:14;67.80;;;66.30;;
86358;SDS011;77014;48.070;20.776;2024-03-23T03:25:45;68.03;;;65.70;;
86358;SDS011;77014;48.070;20.776;2024-03-23T03:26:16;69.50;;;66.97;;
86358;SDS011;77014;48.070;20.776;2024-03-23T03:26:47;66.73;;;65.10;;
86358;SDS011;77014;48.070;20.776;2024-03-23T03:27:20;66.87;;;64.77;;
86358;SDS011;77014;48.070;20.776;2024-03-23T03:27:51;68.20;;;65.70;;
86358;SDS011;77014;48.070;20.776;2024-03-23T03:28:22;67.47;;;64.83;;
86358;SDS011;77014;48.070;20.776;2024-03-23T03:28:53;66.93;;;64.80;;
86358;SDS011;77014;48.070;20.776;2024-03-23T03:29:24;68.87;;;66.57;;
86358;SDS011;77014;48.070;20.776;2024-03-23T03:29:55;67.33;;;64.93;;
86358;SDS011;77014;48.070;20.776;2024-03-23T03:30:26;65.87;;;64.70;;
86358;SDS011;77014;48.070;20.776;2024-03-23T03:30:57;64.97;;;63.10;;
86358;SDS011;77014;48.070;20.776;2024-03-23T03:31:28;63.93;;;61.87;;
86358;SDS011;77014;48.070;20.776;2024-03-23T03:31:59;65.43;;;63.40;;
86358;SDS011;77014;48.070;20.776;2024-03-23T03:32:29;64.00;;;61.87;;
86358;SDS011;77014;48.070;20.776;2024-03-23T03:33:00;63.90;;;61.93;;
86358;SDS011;77014;48.070;20.776;2024-03-23T03:33:32;66.40;;;64.33;;
86358;SDS011;77014;48.070;20.776;2024-03-23T03:34:03;66.23;;;64.17;;
86358;SDS011;77014;48.070;20.776;2024-03-23T03:34:34;64.37;;;62.73;;
86358;SDS011;77014;48.070;20.776;2024-03-23T03:35:05;63.93;;;62.27;;
86358;SDS011;77014;48.070;20.776;2024-03-23T03:35:36;62.83;;;60.63;;
86358;SDS011;77014;48.070;20.776;2024-03-23T03:36:08;60.57;;;58.43;;
86358;SDS011;77014;48.070;20.776;2024-03-23T03:36:39;62.47;;;60.37;;
86358;SDS011;77014;48.070;20.776;2024-03-23T03:37:10;62.07;;;59.87;;
86358;SDS011;77014;48.070;20.776;2024-03-23T03:37:41;62.23;;;59.80;;
86358;SDS011;77014;48.070;20.776;2024-03-23T03:38:12;60.20;;;58.57;;
86358;SDS011;77014;48.070;20.776;2024-03-23T03:38:43;61.33;;;60.17;;
86358;SDS011;77014;48.070;20.776;2024-03-23T03:39:14;61.63;;;60.07;;
86358;SDS011;77014;48.070;20.776;2024-03-23T03:39:45;61.83;;;60.03;;
86358;SDS011;77014;48.070;20.776;2024-03-23T03:40:16;62.43;;;60.73;;
86358;SDS011;77014;48.070;20.776;2024-03-23T03:40:46;63.27;;;61.27;;
86358;SDS011;77014;48.070;20.776;2024-03-23T03:41:18;63.47;;;61.50;;
86358;SDS011;77014;48.070;20.776;2024-03-23T03:41:49;61.93;;;60.03;;
86358;SDS011;77014;48.070;20.776;2024-03-23T03:42:20;64.00;;;62.13;;
86358;SDS011;77014;48.070;20.776;2024-03-23T03:42:51;62.97;;;60.97;;
86358;SDS011;77014;48.070;20.776;2024-03-23T03:43:22;62.90;;;60.80;;
86358;SDS011;77014;48.070;20.776;2024-03-23T03:43:53;61.60;;;60.10;;
86358;SDS011;77014;48.070;20.776;2024-03-23T03:44:25;62.50;;;61.17;;
86358;SDS011;77014;48.070;20.776;2024-03-23T03:44:56;59.60;;;59.10;;
86358;SDS011;77014;48.070;20.776;2024-03-23T03:45:27;62.57;;;61.37;;
86358;SDS011;77014;48.070;20.776;2024-03-23T03:45:58;63.33;;;61.77;;
86358;SDS011;77014;48.070;20.776;2024-03-23T03:46:30;63.03;;;61.30;;
86358;SDS011;77014;48.070;20.776;2024-03-23T03:47:01;62.83;;;60.87;;
86358;SDS011;77014;48.070;20.776;2024-03-23T03:47:33;60.93;;;59.90;;
86358;SDS011;77014;48.070;20.776;2024-03-23T03:48:04;62.53;;;60.57;;
86358;SDS011;77014;48.070;20.776;2024-03-23T03:48:35;63.50;;;61.50;;
86358;SDS011;77014;48.070;20.776;2024-03-23T03:49:06;62.63;;;61.13;;
86358;SDS011;77014;48.070;20.776;2024-03-23T03:49:37;62.50;;;61.03;;
86358;SDS011;77014;48.070;20.776;2024-03-23T03:50:08;62.07;;;60.57;;
86358;SDS011;77014;48.070;20.776;2024-03-23T03:50:39;63.30;;;61.37;;
86358;SDS011;77014;48.070;20.776;2024-03-23T03:51:10;64.40;;;62.37;;
86358;SDS011;77014;48.070;20.776;2024-03-23T03:51:41;64.80;;;62.43;;
86358;SDS011;77014;48.070;20.776;2024-03-23T03:52:12;63.97;;;61.80;;
86358;SDS011;77014;48.070;20.776;2024-03-23T03:52:43;61.03;;;60.37;;
86358;SDS011;77014;48.070;20.776;2024-03-23T03:53:13;62.50;;;61.70;;
86358;SDS011;77014;48.070;20.776;2024-03-23T03:53:44;66.37;;;64.57;;
86358;SDS011;77014;48.070;20.776;2024-03-23T03:54:15;67.73;;;65.50;;